Capulin, Colorado
Current Conditions -  °F | °C
As of 8:52 PM on Saturday 25 Oct 2014 (Local Time) from KALS Reporting Station
Clear Clear  
Wind Chill: 53°   Ceiling: Unl
Heat Index: 53°   Visibility: 10mi
Dew Point: 23°   Wind: 12mph
Humidity: 31%   Direction: 230°SW
Pressure: 30.25"   Gusts: NA
Location:  37.28°N, 106.11°W
Report Text: KALS 260252Z AUTO 23010KT 10SM CLR 12/M05 A3025 RMK AO2 SLP205 T01171050 52004
Loading
Personal Weather Stations






























Interactive Weather Map
Tropical Storm Tracking
New forecast layout! Learn more

10-Day Weather Forecast

Advertisements
Track Severe Weather on mobile